Blue Ridge, New York
Current Conditions -  °F | °C
As of 7:15 AM on Sunday 23 Nov 2014 (Local Time) from K6B0 Reporting Station
Overcast Overcast  
Wind Chill: 39°   Ceiling: 2900
Heat Index: 42°   Visibility: 10mi
Dew Point: 39°   Wind: 6mph
Humidity: 87%   Direction: 180°S
Pressure: 30.04"   Gusts: NA
Location:  43.8504°N, 73.7678°W
Report Text: K6B0 231215Z AUTO 18005KT 10SM OVC029 06/04 A3004 RMK AO2 T00570037
Loading
Personal Weather Stations






























Interactive Weather Map New forecast layout! Learn more

10-Day Weather Forecast

Advertisements
Track Severe Weather on mobile